createdAt,value
2022-09-15T00:02:05.060Z,93.78
2022-09-15T00:04:40.821Z,93.60
2022-09-15T00:07:09.722Z,93.64
2022-09-15T00:09:39.430Z,93.73
2022-09-15T00:12:10.364Z,93.55
2022-09-15T00:14:38.580Z,93.74
2022-09-15T00:17:09.938Z,93.63
2022-09-15T00:19:41.078Z,93.48
2022-09-15T00:22:14.762Z,93.56
2022-09-15T00:24:49.662Z,93.57
2022-09-15T00:27:22.747Z,93.65
2022-09-15T00:29:51.728Z,93.56
2022-09-15T00:33:05.504Z,93.79
2022-09-15T00:35:47.720Z,93.84
2022-09-15T00:38:17.770Z,93.90
2022-09-15T00:40:56.743Z,93.76
2022-09-15T00:43:43.645Z,93.87
2022-09-15T00:46:15.870Z,93.78
2022-09-15T00:49:12.293Z,93.82
2022-09-15T00:51:47.609Z,93.94
2022-09-15T00:54:48.203Z,93.54
2022-09-15T00:57:23.818Z,93.88
2022-09-15T01:00:00.782Z,93.80
2022-09-15T01:02:37.001Z,93.72
2022-09-15T01:05:12.164Z,93.68
2022-09-15T01:07:46.751Z,93.62
2022-09-15T01:10:21.222Z,93.66
2022-09-15T01:12:49.978Z,93.46
2022-09-15T01:15:28.025Z,93.57
2022-09-15T01:18:03.048Z,93.63
2022-09-15T01:20:58.490Z,93.19
2022-09-15T01:23:51.334Z,93.47
2022-09-15T01:26:27.747Z,93.41
2022-09-15T01:29:21.819Z,93.44
2022-09-15T01:32:18.175Z,93.20
2022-09-15T01:35:16.069Z,93.47
2022-09-15T01:38:00.247Z,93.29
2022-09-15T01:40:37.904Z,93.70
2022-09-15T01:43:12.183Z,93.68
2022-09-15T01:45:47.467Z,94.03
2022-09-15T01:48:19.375Z,93.88
2022-09-15T01:50:51.847Z,93.74
2022-09-15T01:53:26.849Z,93.88
2022-09-15T01:56:05.442Z,93.77
2022-09-15T01:58:35.231Z,94.15
2022-09-15T02:01:14.762Z,93.93
2022-09-15T02:03:55.831Z,94.25
2022-09-15T02:06:36.975Z,93.95
2022-09-15T02:09:22.257Z,94.23
2022-09-15T02:12:27.261Z,94.13
2022-09-15T02:15:17.329Z,94.21
2022-09-15T02:17:56.527Z,94.36
2022-09-15T02:20:39.171Z,94.19
2022-09-15T02:23:19.277Z,94.35
2022-09-15T02:25:57.591Z,94.52
2022-09-15T02:28:35.221Z,94.23
2022-09-15T02:31:11.154Z,94.52
2022-09-15T02:33:52.153Z,94.34
2022-09-15T02:36:26.927Z,94.58
2022-09-15T02:39:16.731Z,94.61
2022-09-15T02:41:53.119Z,94.66
2022-09-15T02:44:30.927Z,94.85
2022-09-15T02:47:04.109Z,94.62
2022-09-15T02:49:35.422Z,94.36
2022-09-15T02:52:18.077Z,94.48
2022-09-15T02:54:49.827Z,94.67
2022-09-15T02:57:21.508Z,94.58
2022-09-15T03:00:13.506Z,94.46
2022-09-15T03:02:45.007Z,94.77
2022-09-15T03:05:28.886Z,94.72
2022-09-15T03:08:03.952Z,94.67
2022-09-15T03:10:46.398Z,94.66
2022-09-15T03:13:15.440Z,94.55
2022-09-15T03:15:44.168Z,94.88
2022-09-15T03:18:13.681Z,94.40
2022-09-15T03:20:49.897Z,94.65
2022-09-15T03:23:18.753Z,94.53
2022-09-15T03:25:49.290Z,94.36
2022-09-15T03:28:24.514Z,94.78
2022-09-15T03:31:13.476Z,94.76
2022-09-15T03:33:51.370Z,94.65
2022-09-15T03:36:21.254Z,94.79
2022-09-15T03:38:54.164Z,94.90
2022-09-15T03:41:28.062Z,95.04
2022-09-15T03:44:06.284Z,95.11
2022-09-15T03:46:36.194Z,95.21
2022-09-15T03:49:16.559Z,95.19
2022-09-15T03:51:46.062Z,95.24
2022-09-15T03:54:15.966Z,95.48
2022-09-15T03:57:01.432Z,95.67
2022-09-15T03:59:32.726Z,95.28
2022-09-15T04:02:13.441Z,95.46
2022-09-15T04:04:42.298Z,95.66
2022-09-15T04:07:13.653Z,95.61
2022-09-15T04:09:53.477Z,95.20
2022-09-15T04:12:25.069Z,95.58
2022-09-15T04:14:58.689Z,95.73
2022-09-15T04:17:30.587Z,95.71
2022-09-15T04:20:01.187Z,95.55
2022-09-15T04:22:46.925Z,95.99
2022-09-15T04:25:15.319Z,95.83
2022-09-15T04:27:45.035Z,95.94
2022-09-15T04:30:13.890Z,96.23
2022-09-15T04:32:43.212Z,95.91
2022-09-15T04:35:15.743Z,96.04
2022-09-15T04:37:44.369Z,96.34
2022-09-15T04:40:22.233Z,96.21
2022-09-15T04:43:00.183Z,96.44
2022-09-15T04:45:31.087Z,96.18
2022-09-15T04:48:10.639Z,96.70
2022-09-15T04:50:40.985Z,96.50
2022-09-15T04:53:12.110Z,96.67
2022-09-15T04:55:43.386Z,96.78
2022-09-15T04:58:11.768Z,96.63
2022-09-15T05:00:45.073Z,96.66
2022-09-15T05:03:14.979Z,97.04
2022-09-15T05:05:43.988Z,97.16
2022-09-15T05:08:13.437Z,96.64
2022-09-15T05:10:42.607Z,96.96
2022-09-15T05:13:11.197Z,96.90
2022-09-15T05:15:45.965Z,97.12
2022-09-15T05:18:14.635Z,97.17
2022-09-15T05:20:49.009Z,97.14
2022-09-15T05:23:17.265Z,97.11
2022-09-15T05:25:59.915Z,97.02
2022-09-15T05:28:34.415Z,96.79
2022-09-15T05:31:12.101Z,97.20
2022-09-15T05:33:45.317Z,96.85
2022-09-15T05:36:23.717Z,97.08
2022-09-15T05:38:59.267Z,97.05
2022-09-15T05:41:32.035Z,96.96
2022-09-15T05:44:01.009Z,97.09
2022-09-15T05:46:32.674Z,96.59
2022-09-15T05:49:01.101Z,96.46
2022-09-15T05:51:30.474Z,96.36
2022-09-15T05:53:58.676Z,96.40
2022-09-15T05:56:26.913Z,96.17
2022-09-15T05:58:55.103Z,95.98
2022-09-15T06:01:25.787Z,95.87
2022-09-15T06:03:55.259Z,96.00
2022-09-15T06:06:25.547Z,95.66
2022-09-15T06:08:58.365Z,95.61
2022-09-15T06:11:30.571Z,95.44
2022-09-15T06:14:00.399Z,95.52
2022-09-15T06:16:32.707Z,95.61
2022-09-15T06:19:01.798Z,95.59
2022-09-15T06:21:32.666Z,95.49
2022-09-15T06:24:45.421Z,95.48
2022-09-15T06:28:03.881Z,95.36
2022-09-15T06:30:54.507Z,95.52
2022-09-15T06:33:24.183Z,95.33
2022-09-15T06:35:52.599Z,95.17
2022-09-15T06:38:21.047Z,95.02
2022-09-15T06:40:59.311Z,94.79
2022-09-15T06:43:27.695Z,94.89
2022-09-15T06:46:26.090Z,94.62
2022-09-15T06:48:55.204Z,94.44
2022-09-15T06:51:28.610Z,94.53
2022-09-15T06:53:57.607Z,94.47
2022-09-15T06:56:38.590Z,94.58
2022-09-15T06:59:07.587Z,94.07
2022-09-15T07:01:40.469Z,94.03
2022-09-15T07:04:12.908Z,93.62
2022-09-15T07:06:42.370Z,93.44
2022-09-15T07:09:11.561Z,93.35
2022-09-15T07:11:40.563Z,93.23
2022-09-15T07:14:11.114Z,93.01
2022-09-15T07:16:44.430Z,93.23
2022-09-15T07:19:13.133Z,92.85
2022-09-15T07:21:41.689Z,92.86
2022-09-15T07:24:16.656Z,92.84
2022-09-15T07:26:45.416Z,92.53
2022-09-15T07:29:14.140Z,92.14
2022-09-15T07:31:42.820Z,92.09
2022-09-15T07:34:11.655Z,91.77
2022-09-15T07:36:42.599Z,91.96
2022-09-15T07:39:11.107Z,91.90
2022-09-15T07:41:39.929Z,91.53
2022-09-15T07:44:13.379Z,91.65
2022-09-15T07:46:41.783Z,91.44
2022-09-15T07:49:17.811Z,91.21
2022-09-15T07:51:46.121Z,91.19
2022-09-15T07:54:17.247Z,91.22
2022-09-15T07:56:49.499Z,91.20
2022-09-15T07:59:21.576Z,91.59
2022-09-15T08:01:52.616Z,91.90
2022-09-15T08:04:20.784Z,92.01
2022-09-15T08:06:49.659Z,91.97
2022-09-15T08:09:18.153Z,91.92
2022-09-15T08:11:59.675Z,92.01
2022-09-15T08:14:27.973Z,92.20
2022-09-15T08:16:56.817Z,92.40
2022-09-15T08:19:25.591Z,92.35
2022-09-15T08:21:53.897Z,91.79
2022-09-15T08:24:22.913Z,91.78
2022-09-15T08:26:52.049Z,91.24
2022-09-15T08:29:21.511Z,91.08
2022-09-15T08:31:50.042Z,90.79
2022-09-15T08:34:18.455Z,90.77
2022-09-15T08:36:46.740Z,90.44
2022-09-15T08:39:15.487Z,90.28
2022-09-15T08:41:48.474Z,88.98
2022-09-15T08:44:28.689Z,88.26
2022-09-15T08:47:05.557Z,86.60
2022-09-15T08:49:51.161Z,86.08
2022-09-15T08:52:39.970Z,85.48
2022-09-15T08:55:27.004Z,83.57
2022-09-15T08:57:55.805Z,82.86
2022-09-15T09:00:24.208Z,82.38
2022-09-15T09:03:21.838Z,81.58
2022-09-15T09:06:22.841Z,82.33
2022-09-15T09:09:31.507Z,82.11
2022-09-15T09:12:33.224Z,80.09
2022-09-15T09:15:13.994Z,80.25
2022-09-15T09:17:56.102Z,79.14
2022-09-15T09:20:34.513Z,79.03
2022-09-15T09:23:08.279Z,76.36
2022-09-15T09:25:37.105Z,77.03
2022-09-15T09:28:09.262Z,77.83
2022-09-15T09:30:37.987Z,77.84
2022-09-15T09:33:31.567Z,75.64
2022-09-15T09:36:04.068Z,75.20
2022-09-15T09:38:39.997Z,74.36
2022-09-15T09:41:14.824Z,74.18
2022-09-15T09:43:46.485Z,73.26
2022-09-15T09:46:18.060Z,73.95
2022-09-15T09:48:50.438Z,73.14
2022-09-15T09:51:49.022Z,72.41
2022-09-15T09:54:18.309Z,72.23
2022-09-15T09:56:53.826Z,72.31
2022-09-15T09:59:50.086Z,70.80
2022-09-15T10:02:25.623Z,71.35
2022-09-15T10:05:06.333Z,71.25
2022-09-15T10:07:41.132Z,71.43
2022-09-15T10:10:24.134Z,71.64
2022-09-15T10:12:57.041Z,71.73
2022-09-15T10:15:32.236Z,71.79
2022-09-15T10:18:03.424Z,71.60
2022-09-15T10:20:36.922Z,72.19
2022-09-15T10:23:21.742Z,72.29
2022-09-15T10:25:59.434Z,71.80
2022-09-15T10:28:29.073Z,71.56
2022-09-15T10:31:08.383Z,71.12
2022-09-15T10:33:42.840Z,69.69
2022-09-15T10:36:13.685Z,70.18
2022-09-15T10:39:23.412Z,70.61
2022-09-15T10:42:30.864Z,69.86
2022-09-15T10:45:20.679Z,69.09
2022-09-15T10:48:10.872Z,67.26
2022-09-15T10:50:52.490Z,66.47
2022-09-15T10:53:48.743Z,67.28
2022-09-15T10:56:45.523Z,66.85
2022-09-15T11:00:13.608Z,66.32
2022-09-15T11:03:15.117Z,65.45
2022-09-15T11:06:14.015Z,65.44
2022-09-15T11:09:09.862Z,64.87
2022-09-15T11:11:50.687Z,66.38
2022-09-15T11:14:41.192Z,66.83
2022-09-15T11:17:15.589Z,66.84
2022-09-15T11:19:58.026Z,67.67
2022-09-15T11:22:37.618Z,67.78
2022-09-15T11:25:19.806Z,68.21
2022-09-15T11:28:25.614Z,68.38
2022-09-15T11:31:03.800Z,68.59
2022-09-15T11:33:43.603Z,68.51
2022-09-15T11:36:18.587Z,68.47
2022-09-15T11:39:22.670Z,68.72
2022-09-15T11:42:11.280Z,68.81
2022-09-15T11:44:43.355Z,68.95
2022-09-15T11:47:33.299Z,69.41
2022-09-15T11:50:28.605Z,69.52
2022-09-15T11:53:09.616Z,69.98
2022-09-15T11:55:48.635Z,70.20
2022-09-15T11:58:28.999Z,70.26
2022-09-15T12:01:03.513Z,70.77
2022-09-15T12:03:53.827Z,70.90
2022-09-15T12:06:45.349Z,71.01
2022-09-15T12:09:19.072Z,71.43
2022-09-15T12:11:55.902Z,71.68
2022-09-15T12:14:24.355Z,71.69
2022-09-15T12:16:53.597Z,71.70
2022-09-15T12:19:56.668Z,71.70
2022-09-15T12:22:42.074Z,71.89
2022-09-15T12:25:20.731Z,72.23
2022-09-15T12:28:26.946Z,72.02
2022-09-15T12:31:44.423Z,72.52
2022-09-15T12:34:24.945Z,72.59
2022-09-15T12:36:55.695Z,72.88
2022-09-15T12:39:29.165Z,72.64
2022-09-15T12:42:00.983Z,72.85
2022-09-15T12:44:35.704Z,72.92
2022-09-15T12:47:16.466Z,72.98
2022-09-15T12:49:48.149Z,72.76
2022-09-15T12:52:19.239Z,72.77
2022-09-15T12:55:03.041Z,72.86
2022-09-15T12:57:37.706Z,72.42
2022-09-15T13:01:14.346Z,72.97
2022-09-15T13:06:29.733Z,73.00
2022-09-15T13:09:01.746Z,72.72
2022-09-15T13:11:52.108Z,72.50
2022-09-15T13:14:42.212Z,72.36
2022-09-15T13:17:24.454Z,72.33
2022-09-15T13:20:11.205Z,72.17
2022-09-15T13:22:52.308Z,72.05
2022-09-15T13:25:30.395Z,71.60
2022-09-15T13:28:01.912Z,71.48
2022-09-15T13:31:02.737Z,71.44
2022-09-15T13:40:25.566Z,68.99
2022-09-15T13:43:37.475Z,68.71
2022-09-15T13:46:31.542Z,67.64
2022-09-15T13:49:33.081Z,68.01
2022-09-15T13:52:22.925Z,67.54
2022-09-15T13:55:18.930Z,67.49
2022-09-15T14:00:55.955Z,66.89
2022-09-15T14:03:34.229Z,67.44
2022-09-15T14:06:09.364Z,67.60
2022-09-15T14:08:42.650Z,67.91
2022-09-15T14:11:15.772Z,67.87
2022-09-15T14:13:47.602Z,68.26
2022-09-15T14:16:26.234Z,68.45
2022-09-15T14:18:58.685Z,68.73
2022-09-15T14:21:35.672Z,68.76
2022-09-15T14:24:20.834Z,68.83
2022-09-15T14:26:49.681Z,69.15
2022-09-15T14:29:26.954Z,68.95
2022-09-15T14:32:02.240Z,68.28
2022-09-15T14:34:37.293Z,67.08
2022-09-15T14:37:07.349Z,67.46
2022-09-15T14:39:37.982Z,67.65
2022-09-15T14:42:36.133Z,67.56
2022-09-15T14:48:02.042Z,67.53
2022-09-15T14:50:33.336Z,67.53
2022-09-15T14:53:36.402Z,66.86
2022-09-15T14:56:18.615Z,66.21
2022-09-15T14:58:53.041Z,66.32
2022-09-15T15:01:46.189Z,66.15
2022-09-15T15:04:28.654Z,66.05
2022-09-15T15:07:42.203Z,65.94
2022-09-15T15:10:24.709Z,66.02
2022-09-15T15:12:57.786Z,65.91
2022-09-15T15:15:28.390Z,66.04
2022-09-15T15:18:14.994Z,65.58
2022-09-15T15:20:50.533Z,65.58
2022-09-15T15:23:24.723Z,65.19
2022-09-15T15:25:54.266Z,65.32
2022-09-15T15:28:36.056Z,65.29
2022-09-15T15:31:31.984Z,65.22
2022-09-15T15:34:07.885Z,65.01
2022-09-15T15:36:36.709Z,64.51
2022-09-15T15:39:07.631Z,64.63
2022-09-15T15:41:42.348Z,64.59
2022-09-15T15:44:13.768Z,64.70
2022-09-15T15:47:16.538Z,64.68
2022-09-15T15:50:11.851Z,64.92
2022-09-15T15:52:35.250Z,65.06
2022-09-15T15:55:07.726Z,65.31
2022-09-15T15:57:58.780Z,64.78
2022-09-15T16:00:49.423Z,65.03
2022-09-15T16:03:22.174Z,65.21
2022-09-15T16:05:57.847Z,64.83
2022-09-15T16:08:32.478Z,65.07
2022-09-15T16:11:02.979Z,65.25
2022-09-15T16:13:34.044Z,65.23
2022-09-15T16:16:12.506Z,64.94
2022-09-15T16:18:41.003Z,65.28
2022-09-15T16:21:20.318Z,65.48
2022-09-15T16:23:48.560Z,65.60
2022-09-15T16:26:24.494Z,65.55
2022-09-15T16:28:53.416Z,65.42
2022-09-15T16:31:22.305Z,65.63
2022-09-15T16:33:50.996Z,65.50
2022-09-15T16:36:19.469Z,65.11
2022-09-15T16:38:47.877Z,65.39
2022-09-15T16:41:19.449Z,65.48
2022-09-15T16:43:50.001Z,65.63
2022-09-15T16:46:18.210Z,65.71
2022-09-15T16:48:49.435Z,65.80
2022-09-15T16:51:27.982Z,66.01
2022-09-15T16:53:58.154Z,66.44
2022-09-15T16:56:26.417Z,66.55
2022-09-15T16:58:59.825Z,66.80
2022-09-15T17:01:29.577Z,66.92
2022-09-15T17:03:58.082Z,67.02
2022-09-15T18:02:19.449Z,69.54
2022-09-15T18:04:48.567Z,69.44
2022-09-15T18:07:30.374Z,69.56
2022-09-15T18:09:59.306Z,69.22
2022-09-15T18:12:31.473Z,69.32
2022-09-15T18:15:04.350Z,69.18
2022-09-15T18:17:37.962Z,69.27
2022-09-15T18:20:12.738Z,69.00
2022-09-15T18:22:44.728Z,68.73
2022-09-15T18:25:29.154Z,68.82
2022-09-15T18:28:04.036Z,68.59
2022-09-15T18:30:41.338Z,68.62
2022-09-15T18:33:26.605Z,68.40
2022-09-15T18:35:57.347Z,68.33
2022-09-15T18:38:26.084Z,68.31
2022-09-15T18:40:56.766Z,68.51
2022-09-15T18:43:27.914Z,68.37
2022-09-15T18:46:01.609Z,68.39
2022-09-15T18:48:32.059Z,68.47
2022-09-15T18:51:00.363Z,68.82
2022-09-15T18:53:29.876Z,68.82
2022-09-15T18:55:59.195Z,68.80
2022-09-15T18:58:29.777Z,68.90
2022-09-15T19:01:01.203Z,68.69
2022-09-15T19:03:29.652Z,68.68
2022-09-15T19:06:04.036Z,68.70
2022-09-15T19:08:35.579Z,68.78
2022-09-15T19:11:04.670Z,68.78
2022-09-15T19:13:33.414Z,68.71
2022-09-15T19:16:08.870Z,68.87
2022-09-15T19:18:38.008Z,68.40
2022-09-15T19:21:10.667Z,68.40
2022-09-15T19:23:39.655Z,68.32
2022-09-15T19:26:13.828Z,67.85
2022-09-15T19:28:44.867Z,67.06
2022-09-15T19:31:16.644Z,67.01
2022-09-15T19:33:44.836Z,66.96
2022-09-15T19:36:29.184Z,67.03
2022-09-15T19:39:00.535Z,67.28
2022-09-15T19:41:29.258Z,67.60
2022-09-15T19:44:00.564Z,68.04
2022-09-15T19:46:29.095Z,68.48
2022-09-15T19:48:58.312Z,68.79
2022-09-15T19:51:27.443Z,69.27
2022-09-15T19:53:59.807Z,69.50
2022-09-15T19:56:29.793Z,70.01
2022-09-15T19:59:00.196Z,70.59
2022-09-15T20:01:30.339Z,70.53
2022-09-15T20:06:49.105Z,70.84
2022-09-15T20:09:18.636Z,71.10
2022-09-15T20:11:47.371Z,71.30
2022-09-15T20:14:16.348Z,71.26
2022-09-15T20:16:46.104Z,71.42
2022-09-15T20:19:15.013Z,71.79
2022-09-15T20:21:50.406Z,71.64
2022-09-15T20:24:22.707Z,71.77
2022-09-15T20:26:51.603Z,71.68
2022-09-15T20:29:22.217Z,71.53
2022-09-15T20:31:51.370Z,71.96
2022-09-15T20:34:24.228Z,72.16
2022-09-15T20:37:08.664Z,72.11
2022-09-15T20:39:48.830Z,72.00
2022-09-15T20:42:18.449Z,72.15
2022-09-15T20:44:47.468Z,72.22
2022-09-15T20:47:17.036Z,72.48
2022-09-15T20:49:46.217Z,72.51
2022-09-15T20:52:15.122Z,72.86
2022-09-15T20:54:46.340Z,73.18
2022-09-15T20:57:14.838Z,73.21
2022-09-15T20:59:43.289Z,73.84
2022-09-15T21:02:22.786Z,73.74
2022-09-15T21:04:54.059Z,73.78
2022-09-15T21:07:22.599Z,73.72
2022-09-15T21:09:51.361Z,74.09
2022-09-15T21:12:22.580Z,74.36
2022-09-15T21:14:51.974Z,74.60
2022-09-15T21:17:20.286Z,74.52
2022-09-15T21:19:49.207Z,74.82
2022-09-15T21:22:20.261Z,75.06
2022-09-15T21:24:49.153Z,75.53
2022-09-15T21:27:30.853Z,75.85
2022-09-15T21:29:59.420Z,76.07
2022-09-15T21:32:28.347Z,76.14
2022-09-15T21:34:56.660Z,76.44
2022-09-15T21:37:27.432Z,76.80
2022-09-15T21:39:56.191Z,77.10
2022-09-15T21:42:25.910Z,77.34
2022-09-15T21:44:54.706Z,77.85
2022-09-15T21:47:23.088Z,77.92
2022-09-15T21:49:52.006Z,78.30
2022-09-15T21:52:20.599Z,78.36
2022-09-15T21:54:49.424Z,78.56
2022-09-15T21:57:18.994Z,79.00
2022-09-15T21:59:47.510Z,79.00
2022-09-15T22:02:17.708Z,79.40
2022-09-15T22:04:46.075Z,79.16
2022-09-15T22:07:19.024Z,79.43
2022-09-15T22:09:47.627Z,79.52
2022-09-15T22:12:21.800Z,79.59
2022-09-15T22:14:50.527Z,80.09
2022-09-15T22:17:19.570Z,80.31
2022-09-15T22:19:47.808Z,80.46
2022-09-15T22:22:16.146Z,80.71
2022-09-15T22:24:45.381Z,80.47
2022-09-15T22:27:13.692Z,80.83
2022-09-15T22:29:44.487Z,81.05
2022-09-15T22:32:12.742Z,81.24
2022-09-15T22:34:47.029Z,81.17
2022-09-15T22:37:18.374Z,80.87
2022-09-15T22:39:58.882Z,81.31
2022-09-15T22:42:28.536Z,81.48
2022-09-15T22:44:57.212Z,81.42
2022-09-15T22:47:25.634Z,81.59
2022-09-15T22:49:57.068Z,81.47
2022-09-15T22:52:26.599Z,81.55
2022-09-15T22:54:58.157Z,81.76
2022-09-15T22:57:26.498Z,81.55
2022-09-15T22:59:55.309Z,81.99
2022-09-15T23:02:23.569Z,82.03
2022-09-15T23:04:51.695Z,81.58
2022-09-15T23:07:20.079Z,81.87
2022-09-15T23:09:48.171Z,82.15
2022-09-15T23:12:16.447Z,82.42
2022-09-15T23:14:44.512Z,82.05
2022-09-15T23:17:13.353Z,82.39
2022-09-15T23:19:41.910Z,82.16
2022-09-15T23:22:09.846Z,82.64
2022-09-15T23:24:37.965Z,82.40
2022-09-15T23:27:06.527Z,82.65
2022-09-15T23:29:34.500Z,82.83
2022-09-15T23:32:03.023Z,82.76
2022-09-15T23:34:31.329Z,82.62
2022-09-15T23:37:03.010Z,82.49
2022-09-15T23:39:31.222Z,82.51
2022-09-15T23:42:00.777Z,82.27
2022-09-15T23:44:28.834Z,82.33
2022-09-15T23:46:57.025Z,82.22
2022-09-15T23:49:25.218Z,82.35
2022-09-15T23:51:53.292Z,82.42
2022-09-15T23:54:21.426Z,82.24
2022-09-15T23:56:49.576Z,82.24
2022-09-15T23:59:17.903Z,82.49
